Etusivu
METAR-TAF:

METAR-TAF

Lentoasemat :

Ålesund, Norja

Leveyspiiri: 62-34N, Pituuspiiri: 006-07E, korkeus merenpinnasta: 2 m

Tämänhetkinen sää

Tämä raportti tehtiin 12 minuuttia sitten, kello 10.20 UTC
Tuuli 4 kn kaakosta
Lämpötila 18°C
Kosteus 56%
Ilmanpaine 1027 hPa
Näkyvyys 10 km tai enemmän
ei pilviä alle 1500 m:ssä eikä cumulonimbus-pilviä

METAR: ENAL 241020Z 13004KT CAVOK 18/09 Q1027

Aika: 12:32 (10:32 UTC)

Sääennuste

Tämä raportti tehtiin 2 tuntia ja 32 minuuttia sitten, kello 08.00 UTC
Ennuste voimassa 24. päivästä klo 09 UTC - 24. päivään klo 18 UTC
Tuuli 7 kn eri suunnista
Näkyvyys 10 km tai enemmän
ei pilviä alle 1500 m:ssä eikä cumulonimbus-pilviä

TAF: ENAL 240800Z 2409/2418 VRB07KT CAVOK

Säähavainnot ja -ennusteet yli 4000 lentoasemalta (METAR- ja TAF-raportit).

Käytössä olevat sääasemat on merkitty karttaan keltaisilla ja punaisilla pisteillä.

Aseta hiiri pisteen päälle nähdäksesi sääaseman nimen.

Klikkaa sitten nähdäksesi säähavainnot ja -ennusteet.

Kartan vaihtaminen: klikkaa mustalla rastilla varustettuja vihreitä pisteitä, niin voit zoomata sisään; viivalla varustettua vihreää pistettä, niin voit zoomata ulos tai vihreitä nuolia, niin pääset viereisille kartoille.


METAR-TAF: